createdAt,value
2023-03-20T00:01:52.819Z,9.49
2023-03-20T00:04:37.954Z,9.45
2023-03-20T00:13:29.023Z,9.38
2023-03-20T00:16:54.484Z,9.34
2023-03-20T00:19:31.461Z,9.31
2023-03-20T00:22:24.097Z,9.29
2023-03-20T00:25:30.200Z,9.27
2023-03-20T00:28:41.987Z,9.24
2023-03-20T00:31:36.426Z,9.21
2023-03-20T00:37:37.655Z,9.16
2023-03-20T00:41:01.908Z,9.13
2023-03-20T00:44:42.740Z,9.09
2023-03-20T00:47:42.726Z,9.06
2023-03-20T00:50:52.023Z,9.04
2023-03-20T00:54:08.360Z,9.03
2023-03-20T00:57:03.184Z,8.99
2023-03-20T01:01:20.864Z,8.98
2023-03-20T01:04:18.591Z,8.94
2023-03-20T01:07:29.950Z,8.92
2023-03-20T01:10:07.607Z,8.88
2023-03-20T01:17:44.277Z,8.84
2023-03-20T01:21:13.223Z,8.77
2023-03-20T01:24:29.469Z,8.74
2023-03-20T01:27:53.955Z,8.70
2023-03-20T01:30:31.787Z,8.67
2023-03-20T01:33:08.725Z,8.66
2023-03-20T01:35:45.242Z,8.63
2023-03-20T01:38:27.857Z,8.61
2023-03-20T01:41:08.696Z,8.58
2023-03-20T01:50:30.037Z,8.52
2023-03-20T01:54:09.101Z,8.50
2023-03-20T01:57:07.269Z,8.45
2023-03-20T02:00:02.328Z,8.42
2023-03-20T02:03:11.302Z,8.38
2023-03-20T02:06:03.311Z,8.35
2023-03-20T02:09:19.016Z,8.35
2023-03-20T02:12:12.251Z,8.30
2023-03-20T02:15:05.347Z,8.27
2023-03-20T02:18:34.050Z,8.24
2023-03-20T02:21:50.836Z,8.22
2023-03-20T02:24:57.367Z,8.17
2023-03-20T02:28:50.379Z,8.15
2023-03-20T02:32:25.300Z,8.11
2023-03-20T02:35:51.125Z,8.08
2023-03-20T02:38:58.592Z,8.05
2023-03-20T02:42:05.766Z,8.02
2023-03-20T02:45:10.389Z,7.99
2023-03-20T02:48:39.178Z,7.96
2023-03-20T02:51:54.075Z,7.94
2023-03-20T02:54:51.341Z,7.91
2023-03-20T02:57:38.076Z,7.89
2023-03-20T03:00:40.358Z,7.88
2023-03-20T03:03:31.193Z,7.85
2023-03-20T03:07:07.766Z,7.83
2023-03-20T03:10:31.499Z,7.80
2023-03-20T03:13:29.658Z,7.78
2023-03-20T03:16:11.802Z,7.76
2023-03-20T03:24:08.033Z,7.75
2023-03-20T03:27:01.098Z,7.70
2023-03-20T03:30:19.071Z,7.67
2023-03-20T03:34:09.032Z,7.66
2023-03-20T03:37:39.824Z,7.63
2023-03-20T03:41:12.073Z,7.61
2023-03-20T03:44:55.059Z,7.58
2023-03-20T03:48:02.310Z,7.55
2023-03-20T03:51:06.801Z,7.53
2023-03-20T03:54:42.958Z,7.51
2023-03-20T03:58:54.749Z,7.49
2023-03-20T04:02:11.858Z,7.48
2023-03-20T04:05:05.944Z,7.45
2023-03-20T04:08:01.393Z,7.42
2023-03-20T04:16:44.355Z,7.38
2023-03-20T04:19:19.666Z,7.35
2023-03-20T04:22:14.164Z,7.33
2023-03-20T04:25:28.675Z,7.34
2023-03-20T04:28:04.363Z,7.31
2023-03-20T04:31:15.615Z,7.29
2023-03-20T04:34:41.071Z,7.27
2023-03-20T04:38:32.332Z,7.25
2023-03-20T04:41:47.329Z,7.23
2023-03-20T04:45:08.295Z,7.20
2023-03-20T04:48:22.392Z,7.18
2023-03-20T04:51:33.285Z,7.17
2023-03-20T04:55:14.201Z,7.14
2023-03-20T04:58:16.768Z,7.12
2023-03-20T05:01:27.267Z,7.09
2023-03-20T05:04:31.493Z,7.08
2023-03-20T05:07:47.251Z,7.13
2023-03-20T05:10:53.336Z,7.18
2023-03-20T05:13:50.825Z,7.21
2023-03-20T05:17:21.310Z,7.26
2023-03-20T05:20:36.249Z,7.30
2023-03-20T05:24:49.929Z,7.33
2023-03-20T05:28:44.348Z,7.35
2023-03-20T05:32:25.199Z,7.35
2023-03-20T05:36:11.025Z,7.34
2023-03-20T05:39:36.344Z,7.33
2023-03-20T05:43:21.293Z,7.28
2023-03-20T05:46:26.830Z,7.23
2023-03-20T05:49:45.428Z,7.21
2023-03-20T05:53:20.727Z,7.17
2023-03-20T05:56:42.215Z,7.15
2023-03-20T06:00:15.369Z,7.13
2023-03-20T06:03:36.126Z,7.09
2023-03-20T06:06:48.186Z,7.08
2023-03-20T06:09:48.195Z,7.09
2023-03-20T06:12:50.239Z,7.09
2023-03-20T06:16:10.367Z,7.04
2023-03-20T06:19:29.269Z,7.01
2023-03-20T06:23:25.161Z,6.98
2023-03-20T06:26:31.406Z,6.92
2023-03-20T06:29:43.200Z,6.93
2023-03-20T06:33:05.196Z,6.96
2023-03-20T06:36:37.236Z,7.00
2023-03-20T06:39:30.601Z,7.03
2023-03-20T06:42:03.278Z,7.07
2023-03-20T06:44:34.171Z,7.11
2023-03-20T06:47:14.052Z,7.15
2023-03-20T06:49:46.164Z,7.19
2023-03-20T06:52:23.865Z,7.21
2023-03-20T06:55:10.982Z,7.24
2023-03-20T06:58:01.784Z,7.28
2023-03-20T07:00:50.168Z,7.35
2023-03-20T07:03:25.536Z,7.39
2023-03-20T07:05:58.143Z,7.44
2023-03-20T07:09:06.211Z,7.49
2023-03-20T07:11:51.910Z,7.55
2023-03-20T07:16:56.406Z,7.67
2023-03-20T07:20:12.293Z,7.79
2023-03-20T07:23:43.188Z,7.87
2023-03-20T07:27:19.227Z,7.93
2023-03-20T07:30:50.253Z,7.98
2023-03-20T07:34:20.590Z,8.07
2023-03-20T07:37:50.141Z,8.19
2023-03-20T07:41:20.138Z,8.31
2023-03-20T07:44:52.271Z,8.44
2023-03-20T07:48:22.113Z,8.57
2023-03-20T07:51:55.190Z,8.69
2023-03-20T07:55:25.039Z,8.85
2023-03-20T07:58:56.165Z,8.98
2023-03-20T08:02:26.090Z,9.07
2023-03-20T08:06:02.939Z,9.13
2023-03-20T08:10:42.884Z,9.19
2023-03-20T08:14:12.805Z,9.24
2023-03-20T08:17:43.252Z,9.33
2023-03-20T08:21:13.781Z,9.44
2023-03-20T08:24:44.006Z,9.54
2023-03-20T08:28:15.211Z,9.64
2023-03-20T08:31:44.968Z,9.74
2023-03-20T08:35:33.717Z,9.82
2023-03-20T08:39:00.899Z,9.88
2023-03-20T08:42:42.811Z,9.92
2023-03-20T08:46:12.803Z,9.96
2023-03-20T08:49:38.650Z,9.99
2023-03-20T08:53:03.811Z,10.04
2023-03-20T09:00:02.816Z,10.15
2023-03-20T09:03:28.761Z,10.20
2023-03-20T09:06:57.769Z,10.24
2023-03-20T09:10:18.928Z,10.28
2023-03-20T09:13:47.780Z,10.35
2023-03-20T09:16:50.641Z,10.43
2023-03-20T09:19:22.653Z,10.50
2023-03-20T09:21:56.864Z,10.56
2023-03-20T09:24:32.020Z,10.62
2023-03-20T09:27:05.886Z,10.66
2023-03-20T09:36:12.324Z,10.82
2023-03-20T09:38:43.793Z,10.85
2023-03-20T09:41:28.971Z,10.91
2023-03-20T09:44:14.988Z,10.96
2023-03-20T09:47:21.232Z,11.01
2023-03-20T09:50:15.408Z,11.02
2023-03-20T09:52:55.944Z,11.01
2023-03-20T09:55:37.802Z,11.02
2023-03-20T09:58:34.673Z,11.03
2023-03-20T10:01:10.443Z,11.09
2023-03-20T10:04:10.490Z,11.12
2023-03-20T10:06:46.917Z,11.12
2023-03-20T10:09:28.549Z,11.16
2023-03-20T10:12:07.204Z,11.18
2023-03-20T10:14:54.335Z,11.22
2023-03-20T10:17:52.670Z,11.25
2023-03-20T10:20:30.878Z,11.27
2023-03-20T10:23:44.139Z,11.29
2023-03-20T10:26:31.745Z,11.33
2023-03-20T10:29:53.141Z,11.36
2023-03-20T10:33:27.700Z,11.38
2023-03-20T10:36:53.478Z,11.38
2023-03-20T10:39:57.502Z,11.43
2023-03-20T10:42:40.308Z,11.50
2023-03-20T10:46:30.334Z,11.57
2023-03-20T10:50:13.180Z,11.65
2023-03-20T10:52:50.709Z,11.74
2023-03-20T10:55:31.416Z,11.79
2023-03-20T10:58:29.517Z,11.89
2023-03-20T11:01:59.497Z,12.02
2023-03-20T11:05:21.384Z,12.12
2023-03-20T11:08:47.543Z,12.20
2023-03-20T11:11:50.526Z,12.32
2023-03-20T11:15:13.340Z,12.50
2023-03-20T11:18:31.475Z,12.55
2023-03-20T11:21:29.449Z,12.58
2023-03-20T11:24:43.616Z,12.59
2023-03-20T11:28:14.456Z,12.58
2023-03-20T11:31:18.421Z,12.55
2023-03-20T11:34:16.402Z,12.52
2023-03-20T11:37:12.761Z,12.47
2023-03-20T11:40:06.196Z,12.40
2023-03-20T11:46:04.768Z,12.40
2023-03-20T11:48:44.718Z,12.38
2023-03-20T11:51:20.832Z,12.38
2023-03-20T11:53:51.634Z,12.37
2023-03-20T11:56:30.772Z,12.33
2023-03-20T11:59:22.687Z,12.29
2023-03-20T12:01:56.772Z,12.23
2023-03-20T12:04:43.223Z,12.25
2023-03-20T12:07:38.387Z,12.29
2023-03-20T12:10:15.760Z,12.34
2023-03-20T12:12:56.722Z,12.40
2023-03-20T12:15:38.612Z,12.47
2023-03-20T12:18:34.946Z,12.52
2023-03-20T12:21:24.957Z,12.53
2023-03-20T12:24:00.198Z,12.53
2023-03-20T12:26:44.329Z,12.49
2023-03-20T12:29:54.894Z,12.48
2023-03-20T12:32:54.028Z,12.52
2023-03-20T12:35:29.009Z,12.54
2023-03-20T12:38:01.086Z,12.55
2023-03-20T12:40:58.373Z,12.55
2023-03-20T12:43:42.058Z,12.57
2023-03-20T12:47:04.351Z,12.60
2023-03-20T12:50:30.371Z,12.62
2023-03-20T12:53:54.326Z,12.63
2023-03-20T12:57:28.560Z,12.63
2023-03-20T13:00:12.188Z,12.69
2023-03-20T13:03:11.581Z,12.72
2023-03-20T13:06:48.442Z,12.80
2023-03-20T13:10:18.169Z,12.86
2023-03-20T13:13:33.249Z,12.85
2023-03-20T13:16:40.032Z,12.84
2023-03-20T13:19:16.801Z,12.84
2023-03-20T13:21:55.967Z,12.88
2023-03-20T13:24:36.780Z,12.95
2023-03-20T13:27:29.444Z,13.01
2023-03-20T13:30:18.574Z,13.11
2023-03-20T13:33:34.867Z,13.18
2023-03-20T13:36:46.376Z,13.23
2023-03-20T13:39:31.589Z,13.26
2023-03-20T13:42:05.956Z,13.28
2023-03-20T13:44:38.061Z,13.33
2023-03-20T13:48:02.433Z,13.31
2023-03-20T13:50:53.679Z,13.29
2023-03-20T13:53:30.738Z,13.26
2023-03-20T13:56:04.739Z,13.22
2023-03-20T13:58:50.502Z,13.17
2023-03-20T14:02:10.076Z,13.13
2023-03-20T14:04:43.159Z,13.10
2023-03-20T14:14:58.070Z,13.24
2023-03-20T14:17:35.132Z,13.23
2023-03-20T14:20:24.319Z,13.20
2023-03-20T14:22:53.153Z,13.18
2023-03-20T14:25:23.980Z,13.14
2023-03-20T14:28:06.386Z,13.11
2023-03-20T14:30:51.012Z,13.08
2023-03-20T14:33:21.781Z,13.07
2023-03-20T14:36:13.354Z,13.08
2023-03-20T14:39:10.687Z,13.12
2023-03-20T14:41:57.228Z,13.18
2023-03-20T14:44:50.785Z,13.24
2023-03-20T14:47:46.624Z,13.29
2023-03-20T14:50:40.050Z,13.31
2023-03-20T14:53:22.061Z,13.29
2023-03-20T14:55:56.212Z,13.27
2023-03-20T14:58:36.450Z,13.24
2023-03-20T15:01:08.312Z,13.23
2023-03-20T15:10:49.033Z,13.38
2023-03-20T15:13:21.079Z,13.39
2023-03-20T15:15:59.766Z,13.41
2023-03-20T15:18:30.723Z,13.42
2023-03-20T15:21:01.758Z,13.41
2023-03-20T15:23:34.637Z,13.40
2023-03-20T15:26:05.837Z,13.37
2023-03-20T15:28:40.220Z,13.33
2023-03-20T15:31:35.990Z,13.30
2023-03-20T15:34:36.839Z,13.30
2023-03-20T15:37:15.648Z,13.32
2023-03-20T15:39:51.445Z,13.31
2023-03-20T15:42:28.160Z,13.30
2023-03-20T15:44:58.875Z,13.27
2023-03-20T15:47:32.852Z,13.27
2023-03-20T15:51:09.598Z,13.26
2023-03-20T15:53:45.105Z,13.25
2023-03-20T15:57:05.141Z,13.24
2023-03-20T15:59:38.655Z,13.21
2023-03-20T16:02:15.133Z,13.18
2023-03-20T16:04:54.820Z,13.19
2023-03-20T16:07:56.362Z,13.20
2023-03-20T16:10:48.263Z,13.21
2023-03-20T16:13:24.069Z,13.21
2023-03-20T16:15:57.772Z,13.21
2023-03-20T16:18:32.943Z,13.19
2023-03-20T16:21:12.023Z,13.17
2023-03-20T16:23:53.374Z,13.15
2023-03-20T16:26:26.599Z,13.14
2023-03-20T16:29:00.694Z,13.12
2023-03-20T16:31:36.511Z,13.10
2023-03-20T16:34:19.364Z,13.07
2023-03-20T16:36:59.257Z,13.05
2023-03-20T16:39:32.491Z,13.05
2023-03-20T16:42:29.962Z,13.03
2023-03-20T16:45:01.629Z,12.99
2023-03-20T16:47:38.763Z,12.97
2023-03-20T16:50:19.568Z,12.94
2023-03-20T16:53:00.498Z,12.92
2023-03-20T16:55:39.187Z,12.89
2023-03-20T16:58:10.317Z,12.86
2023-03-20T17:01:08.104Z,12.83
2023-03-20T17:05:11.318Z,12.81
2023-03-20T17:07:44.947Z,12.82
2023-03-20T17:10:24.956Z,12.84
2023-03-20T17:12:56.933Z,12.85
2023-03-20T17:16:02.372Z,12.85
2023-03-20T17:18:38.991Z,12.68
2023-03-20T17:21:12.534Z,12.32
2023-03-20T17:23:43.827Z,12.02
2023-03-20T17:26:58.532Z,11.88
2023-03-20T17:29:29.991Z,11.79
2023-03-20T17:32:18.497Z,11.75
2023-03-20T17:34:52.970Z,11.74
2023-03-20T17:37:34.438Z,11.76
2023-03-20T17:40:06.384Z,11.79
2023-03-20T17:42:41.149Z,11.79
2023-03-20T17:45:16.971Z,11.78
2023-03-20T17:47:52.204Z,11.76
2023-03-20T17:50:29.762Z,11.69
2023-03-20T17:53:01.481Z,11.56
2023-03-20T17:55:34.451Z,11.48
2023-03-20T17:58:07.571Z,11.40
2023-03-20T18:00:40.921Z,11.31
2023-03-20T18:03:13.561Z,11.24
2023-03-20T18:05:44.444Z,11.15
2023-03-20T18:08:23.290Z,11.07
2023-03-20T18:10:55.768Z,10.96
2023-03-20T18:13:30.759Z,10.86
2023-03-20T18:16:03.067Z,10.79
2023-03-20T18:18:34.874Z,10.73
2023-03-20T18:21:08.645Z,10.65
2023-03-20T18:23:41.801Z,10.62
2023-03-20T18:26:26.343Z,10.61
2023-03-20T18:29:04.861Z,10.59
2023-03-20T18:31:40.146Z,10.58
2023-03-20T18:34:52.878Z,10.55
2023-03-20T18:37:32.154Z,10.56
2023-03-20T18:40:22.092Z,10.55
2023-03-20T18:42:56.109Z,10.59
2023-03-20T18:45:30.424Z,10.63
2023-03-20T18:48:05.419Z,10.67
2023-03-20T18:50:41.672Z,10.71
2023-03-20T18:53:16.900Z,10.76
2023-03-20T18:55:54.503Z,10.79
2023-03-20T18:58:41.133Z,10.83
2023-03-20T19:01:18.439Z,10.86
2023-03-20T19:03:54.375Z,10.87
2023-03-20T19:06:33.084Z,10.87
2023-03-20T19:09:08.290Z,10.88
2023-03-20T19:11:42.137Z,10.85
2023-03-20T19:14:26.936Z,10.83
2023-03-20T19:17:01.276Z,10.79
2023-03-20T19:19:52.541Z,10.80
2023-03-20T19:22:29.928Z,10.80
2023-03-20T19:25:07.141Z,10.88
2023-03-20T19:27:49.581Z,10.90
2023-03-20T19:30:54.221Z,10.85
2023-03-20T19:38:58.669Z,10.75
2023-03-20T19:42:45.224Z,10.70
2023-03-20T19:45:52.487Z,10.66
2023-03-20T19:48:46.797Z,10.61
2023-03-20T19:51:57.281Z,10.57
2023-03-20T19:55:03.833Z,10.55
2023-03-20T19:58:21.735Z,10.52
2023-03-20T20:01:31.446Z,10.51
2023-03-20T20:04:04.554Z,10.53
2023-03-20T20:06:39.621Z,10.55
2023-03-20T20:09:20.679Z,10.57
2023-03-20T20:12:16.256Z,10.62
2023-03-20T20:15:24.066Z,10.65
2023-03-20T20:18:11.375Z,10.64
2023-03-20T20:24:00.920Z,10.58
2023-03-20T20:27:15.733Z,10.57
2023-03-20T20:30:23.640Z,10.54
2023-03-20T20:33:34.165Z,10.54
2023-03-20T20:40:24.559Z,10.63
2023-03-20T20:43:01.722Z,10.63
2023-03-20T20:45:49.572Z,10.65
2023-03-20T20:49:20.255Z,10.66
2023-03-20T20:52:22.793Z,10.69
2023-03-20T20:54:57.099Z,10.68
2023-03-20T20:57:53.318Z,10.65
2023-03-20T21:00:52.582Z,10.64
2023-03-20T21:04:05.015Z,10.61
2023-03-20T21:07:10.987Z,10.59
2023-03-20T21:10:27.145Z,10.61
2023-03-20T21:13:48.060Z,10.64
2023-03-20T21:16:43.691Z,10.68
2023-03-20T21:19:20.913Z,10.71
2023-03-20T21:21:56.213Z,10.73
2023-03-20T21:24:46.096Z,10.74
2023-03-20T21:27:48.589Z,10.73
2023-03-20T21:30:19.966Z,10.71
2023-03-20T21:33:18.307Z,10.68
2023-03-20T21:36:49.542Z,10.66
2023-03-20T21:40:16.559Z,10.68
2023-03-20T21:43:30.271Z,10.68
2023-03-20T21:50:25.817Z,10.65
2023-03-20T21:57:01.273Z,10.62
2023-03-20T22:03:58.494Z,10.53
2023-03-20T22:07:32.996Z,10.50
2023-03-20T22:18:25.112Z,10.47
2023-03-20T22:21:41.831Z,10.47
2023-03-20T22:28:36.671Z,10.30
2023-03-20T22:36:10.334Z,10.07
2023-03-20T22:42:51.557Z,9.96
2023-03-20T22:46:16.937Z,9.91
2023-03-20T22:49:30.274Z,9.80
2023-03-20T22:52:59.245Z,9.65
2023-03-20T22:56:32.156Z,9.44
2023-03-20T23:00:00.291Z,9.29
2023-03-20T23:03:40.903Z,9.19
2023-03-20T23:07:00.227Z,9.09
2023-03-20T23:10:30.400Z,9.03
2023-03-20T23:14:01.251Z,8.98
2023-03-20T23:17:31.248Z,8.93
2023-03-20T23:21:01.220Z,8.86
2023-03-20T23:24:30.290Z,8.78
2023-03-20T23:28:00.282Z,8.76
2023-03-20T23:31:31.577Z,8.78
2023-03-20T23:35:01.211Z,8.80
2023-03-20T23:38:30.221Z,8.74
2023-03-20T23:42:14.606Z,8.66
2023-03-20T23:45:32.316Z,8.58
2023-03-20T23:49:02.212Z,8.52
2023-03-20T23:52:53.370Z,8.53
2023-03-20T23:55:45.177Z,8.54
2023-03-20T23:59:05.223Z,8.58
